createdAt,value
2022-09-29T00:00:02.118Z,7.53
2022-09-29T00:05:01.364Z,7.37
2022-09-29T00:10:01.363Z,7.33
2022-09-29T00:15:01.547Z,7.24
2022-09-29T00:20:02.222Z,7.16
2022-09-29T00:25:01.840Z,7.23
2022-09-29T00:30:02.028Z,7.12
2022-09-29T00:35:01.798Z,7.05
2022-09-29T00:40:01.798Z,7.01
2022-09-29T00:45:01.637Z,6.9
2022-09-29T00:50:02.003Z,7.03
2022-09-29T00:55:02.192Z,7.09
2022-09-29T01:00:01.565Z,6.96
2022-09-29T01:05:02.168Z,6.89
2022-09-29T01:10:01.882Z,6.87
2022-09-29T01:15:02.224Z,6.87
2022-09-29T01:20:04.549Z,6.83
2022-09-29T01:25:02.018Z,6.6
2022-09-29T01:30:01.569Z,6.41
2022-09-29T01:35:01.370Z,6.41
2022-09-29T01:40:01.716Z,6.38
2022-09-29T01:45:01.855Z,6.2
2022-09-29T01:50:01.693Z,6.06
2022-09-29T01:55:01.848Z,6.12
2022-09-29T02:00:02.038Z,6.22
2022-09-29T02:05:01.801Z,6.16
2022-09-29T02:10:01.436Z,5.99
2022-09-29T02:15:01.323Z,5.98
2022-09-29T02:20:01.484Z,6.01
2022-09-29T02:25:01.813Z,5.92
2022-09-29T02:30:01.995Z,5.99
2022-09-29T02:35:02.105Z,5.99
2022-09-29T02:40:02.140Z,5.98
2022-09-29T02:45:02.173Z,5.83
2022-09-29T02:50:01.898Z,5.7
2022-09-29T02:55:02.020Z,5.85
2022-09-29T03:00:01.299Z,5.86
2022-09-29T03:05:02.168Z,5.86
2022-09-29T03:10:01.704Z,5.79
2022-09-29T03:15:01.745Z,5.72
2022-09-29T03:20:02.322Z,5.74
2022-09-29T03:25:02.425Z,5.68
2022-09-29T03:30:01.703Z,5.76
2022-09-29T03:35:02.420Z,5.62
2022-09-29T03:40:01.632Z,5.61
2022-09-29T03:45:02.359Z,5.68
2022-09-29T03:50:02.062Z,5.72
2022-09-29T03:55:01.913Z,5.69
2022-09-29T04:00:02.169Z,5.67
2022-09-29T04:05:01.377Z,5.7
2022-09-29T04:10:01.504Z,5.79
2022-09-29T04:15:01.921Z,5.75
2022-09-29T04:20:01.654Z,5.7
2022-09-29T04:25:02.090Z,5.66
2022-09-29T04:30:02.216Z,5.56
2022-09-29T04:35:02.196Z,5.63
2022-09-29T04:40:02.212Z,5.64
2022-09-29T04:45:02.105Z,5.69
2022-09-29T04:50:01.410Z,5.67
2022-09-29T04:55:01.549Z,5.57
2022-09-29T05:00:01.989Z,5.62
2022-09-29T05:05:01.601Z,5.65
2022-09-29T05:10:01.816Z,5.65
2022-09-29T05:20:01.977Z,5.7
2022-09-29T05:25:02.274Z,5.62
2022-09-29T05:30:01.507Z,5.6
2022-09-29T05:35:01.630Z,5.57
2022-09-29T05:40:02.192Z,5.5
2022-09-29T05:45:01.770Z,5.47
2022-09-29T05:50:01.326Z,5.53
2022-09-29T05:55:01.789Z,5.57
2022-09-29T06:00:01.692Z,5.49
2022-09-29T06:05:02.139Z,5.51
2022-09-29T06:10:01.664Z,5.5
2022-09-29T06:15:02.191Z,5.53
2022-09-29T06:20:01.938Z,5.6
2022-09-29T06:25:02.237Z,5.65
2022-09-29T06:30:01.683Z,5.71
2022-09-29T06:35:01.652Z,5.75
2022-09-29T06:40:01.267Z,5.86
2022-09-29T06:45:01.758Z,5.92
2022-09-29T06:50:10.875Z,5.99
2022-09-29T06:55:01.628Z,6.14
2022-09-29T07:00:02.085Z,6.3
2022-09-29T07:05:01.633Z,6.49
2022-09-29T07:10:02.167Z,6.67
2022-09-29T07:15:02.236Z,6.71
2022-09-29T07:20:01.264Z,6.95
2022-09-29T07:25:01.823Z,7.1
2022-09-29T07:30:04.014Z,7.42
2022-09-29T07:35:01.245Z,7.76
2022-09-29T07:40:01.845Z,7.76
2022-09-29T07:45:01.770Z,8.13
2022-09-29T07:50:02.188Z,7.93
2022-09-29T07:55:01.747Z,8.17
2022-09-29T08:00:02.085Z,8.31
2022-09-29T08:05:06.783Z,8.6
2022-09-29T08:10:13.455Z,8.89
2022-09-29T08:15:01.287Z,9.02
2022-09-29T08:20:01.998Z,9.35
2022-09-29T08:25:02.015Z,9.53
2022-09-29T08:30:01.747Z,9.53
2022-09-29T08:35:02.199Z,9.37
2022-09-29T08:40:01.361Z,9.46
2022-09-29T08:45:14.289Z,9.62
2022-09-29T08:50:01.779Z,10.01
2022-09-29T08:55:13.914Z,9.97
2022-09-29T09:00:01.733Z,10.31
2022-09-29T09:05:01.800Z,10.35
2022-09-29T09:10:01.489Z,10.48
2022-09-29T09:15:01.389Z,10.48
2022-09-29T09:20:02.100Z,10.29
2022-09-29T09:25:01.391Z,10.34
2022-09-29T09:30:01.718Z,10.51
2022-09-29T09:35:17.144Z,10.78
2022-09-29T09:40:01.343Z,10.93
2022-09-29T09:45:01.922Z,11.16
2022-09-29T09:50:01.307Z,11.38
2022-09-29T09:55:01.415Z,11.53
2022-09-29T10:00:01.959Z,11.73
2022-09-29T10:05:04.153Z,11.81
2022-09-29T10:10:01.853Z,12.02
2022-09-29T10:15:02.015Z,12.27
2022-09-29T10:20:01.735Z,12.69
2022-09-29T10:25:02.285Z,12.56
2022-09-29T10:30:01.406Z,12.64
2022-09-29T10:35:01.610Z,12.84
2022-09-29T10:40:01.376Z,12.72
2022-09-29T10:45:01.791Z,12.72
2022-09-29T10:50:01.913Z,12.63
2022-09-29T10:55:01.735Z,12.53
2022-09-29T11:00:01.484Z,12.57
2022-09-29T11:05:01.745Z,12.53
2022-09-29T11:10:01.718Z,12.69
2022-09-29T11:15:02.139Z,12.84
2022-09-29T11:20:01.968Z,12.93
2022-09-29T11:25:02.198Z,13.26
2022-09-29T11:30:01.656Z,13.39
2022-09-29T11:35:01.928Z,13.14
2022-09-29T11:40:01.752Z,13.29
2022-09-29T11:45:02.150Z,13.2
2022-09-29T11:50:01.544Z,13.55
2022-09-29T11:55:01.821Z,13.53
2022-09-29T12:00:02.070Z,13.56
2022-09-29T12:05:02.002Z,12.99
2022-09-29T12:10:01.331Z,12.95
2022-09-29T12:15:01.672Z,13.25
2022-09-29T12:20:02.091Z,13.45
2022-09-29T12:25:01.705Z,13.43
2022-09-29T12:30:02.255Z,13.29
2022-09-29T12:35:02.217Z,13.39
2022-09-29T12:40:02.113Z,13.52
2022-09-29T12:45:01.336Z,13.82
2022-09-29T12:50:02.153Z,14.07
2022-09-29T12:55:02.120Z,14.17
2022-09-29T13:00:02.460Z,14.01
2022-09-29T13:05:01.424Z,13.92
2022-09-29T13:10:02.109Z,13.85
2022-09-29T13:15:01.713Z,13.71
2022-09-29T13:20:02.448Z,13.63
2022-09-29T13:25:01.733Z,13.53
2022-09-29T13:30:01.632Z,13.75
2022-09-29T13:35:02.209Z,13.84
2022-09-29T13:40:03.701Z,13.89
2022-09-29T13:45:01.862Z,14.04
2022-09-29T13:50:01.777Z,14.01
2022-09-29T13:55:02.190Z,13.95
2022-09-29T14:00:01.956Z,13.95
2022-09-29T14:05:02.275Z,13.97
2022-09-29T14:10:01.405Z,13.92
2022-09-29T14:15:01.946Z,13.9
2022-09-29T14:20:02.097Z,13.84
2022-09-29T14:25:01.894Z,13.9
2022-09-29T14:30:02.172Z,13.83
2022-09-29T14:35:01.980Z,13.77
2022-09-29T14:40:02.501Z,13.8
2022-09-29T14:45:01.436Z,13.93
2022-09-29T14:50:01.977Z,13.77
2022-09-29T14:55:01.632Z,13.7
2022-09-29T15:00:01.490Z,13.58
2022-09-29T15:05:02.225Z,13.66
2022-09-29T15:10:02.004Z,13.64
2022-09-29T15:15:02.178Z,13.67
2022-09-29T15:20:01.701Z,13.56
2022-09-29T15:25:01.500Z,13.48
2022-09-29T15:30:02.207Z,13.41
2022-09-29T15:35:01.835Z,13.29
2022-09-29T15:40:01.663Z,13.21
2022-09-29T15:45:02.141Z,13.16
2022-09-29T15:50:01.810Z,13.03
2022-09-29T15:55:01.446Z,12.9
2022-09-29T16:00:01.322Z,12.81
2022-09-29T16:05:02.197Z,12.72
2022-09-29T16:10:02.199Z,12.62
2022-09-29T16:15:01.777Z,12.52
2022-09-29T16:20:01.727Z,12.35
2022-09-29T16:25:01.695Z,12
2022-09-29T16:30:01.723Z,11.81
2022-09-29T16:35:02.102Z,11.69
2022-09-29T16:40:02.020Z,11.69
2022-09-29T16:45:01.713Z,11.57
2022-09-29T16:50:01.315Z,11.47
2022-09-29T16:55:01.980Z,11.34
2022-09-29T17:00:01.375Z,11.27
2022-09-29T17:05:01.991Z,11.22
2022-09-29T17:10:01.756Z,11.14
2022-09-29T17:15:01.777Z,11.07
2022-09-29T17:20:01.531Z,11.03
2022-09-29T17:25:01.391Z,10.83
2022-09-29T17:30:01.542Z,10.7
2022-09-29T17:35:01.718Z,10.48
2022-09-29T17:40:01.942Z,10.35
2022-09-29T17:45:01.500Z,10.18
2022-09-29T17:50:02.122Z,10.07
2022-09-29T17:55:01.888Z,9.94
2022-09-29T18:00:01.757Z,9.85
2022-09-29T18:05:01.827Z,9.75
2022-09-29T18:10:01.485Z,9.71
2022-09-29T18:15:01.383Z,9.69
2022-09-29T18:20:01.634Z,9.67
2022-09-29T18:25:01.749Z,9.67
2022-09-29T18:30:01.990Z,9.52
2022-09-29T18:35:01.939Z,9.26
2022-09-29T18:40:02.150Z,9.02
2022-09-29T18:45:02.181Z,8.92
2022-09-29T18:50:01.371Z,8.9
2022-09-29T18:55:01.732Z,8.82
2022-09-29T19:00:01.544Z,8.86
2022-09-29T19:05:01.420Z,8.82
2022-09-29T19:10:01.602Z,8.77
2022-09-29T19:15:01.780Z,8.74
2022-09-29T19:20:01.578Z,8.79
2022-09-29T19:25:01.916Z,8.89
2022-09-29T19:30:03.409Z,8.76
2022-09-29T19:35:02.220Z,8.66
2022-09-29T19:40:01.442Z,8.62
2022-09-29T19:45:01.307Z,8.67
2022-09-29T19:50:01.534Z,8.73
2022-09-29T19:55:02.023Z,8.77
2022-09-29T20:00:01.368Z,8.96
2022-09-29T20:05:02.234Z,9.09
2022-09-29T20:10:01.462Z,9.04
2022-09-29T20:15:02.260Z,8.95
2022-09-29T20:20:01.973Z,8.88
2022-09-29T20:25:01.755Z,8.94
2022-09-29T20:30:02.229Z,9.01
2022-09-29T20:35:01.351Z,9.08
2022-09-29T20:40:01.616Z,9.12
2022-09-29T20:45:01.730Z,9.11
2022-09-29T20:50:02.030Z,9.14
2022-09-29T20:55:01.330Z,9.09
2022-09-29T21:00:01.363Z,9.31
2022-09-29T21:05:01.805Z,9.01
2022-09-29T21:10:01.481Z,8.97
2022-09-29T21:15:01.323Z,9.04
2022-09-29T21:20:02.157Z,8.95
2022-09-29T21:25:01.828Z,9.01
2022-09-29T21:30:01.943Z,8.98
2022-09-29T21:35:01.492Z,8.98
2022-09-29T21:40:01.398Z,9.22
2022-09-29T21:45:01.313Z,8.96
2022-09-29T21:50:02.045Z,8.92
2022-09-29T21:55:02.226Z,8.95
2022-09-29T22:00:02.278Z,9
2022-09-29T22:05:02.059Z,8.92
2022-09-29T22:10:01.424Z,8.68
2022-09-29T22:15:02.084Z,8.59
2022-09-29T22:20:01.482Z,8.77
2022-09-29T22:25:01.689Z,8.56
2022-09-29T22:30:01.721Z,8.63
2022-09-29T22:35:01.862Z,8.43
2022-09-29T22:40:01.303Z,8.34
2022-09-29T22:45:01.702Z,8.28
2022-09-29T22:50:02.038Z,8.27
2022-09-29T22:55:02.121Z,8.19
2022-09-29T23:00:01.578Z,8.16
2022-09-29T23:05:01.849Z,8.06
2022-09-29T23:10:01.969Z,8.06
2022-09-29T23:20:01.341Z,7.71
2022-09-29T23:25:02.124Z,7.55
2022-09-29T23:30:01.385Z,7.26
2022-09-29T23:35:02.184Z,7.19
2022-09-29T23:40:01.711Z,7.09
2022-09-29T23:45:02.007Z,6.91
2022-09-29T23:50:01.538Z,7.1
2022-09-29T23:55:01.681Z,7.04
